Terminal Aerodrome Forecast
Issued by NWS

Home | Current Version | Previous Version | Text Only | Print | Product List | Glossary On
Versions: 1 2 3 4 5 6 7 8 9 10 11 12
000
FTUS45 KRIW 051126
TAFWRL
TAF
KWRL 051126Z 0512/0612 34014G22KT 2SM -SN BKN010 OVC025
     FM051500 31012G18KT P6SM VCSH SCT030 BKN060
     FM052100 35010KT P6SM BKN060
     FM060400 VRB05KT P6SM SCT060=

USA.gov is the U.S. government's official web portal to all federal, state and local government web resources and services.